メインページ
METAR-TAF:

METAR-TAF

空港 :

ワガドゥグー空港

ワガドゥグー, ブルキナファソ

緯度: 12-21N, 経度: 001-31W, 海抜: 316m

現時点の気象観測

当レポートは45分前の05:00(UTC)に作成
の風 3kt
気温 27°C
湿度 18%
気圧 1008 hPa
視程10km以上
1,500メートル以下は雲なし、積乱雲なし

METAR: DFFD 210500Z 01003KT CAVOK 27/01 Q1008 NOSIG

時間: 05:45 (05:45 UTC)

予報

当レポートは45分前の05:00(UTC)に作成
予報は21日の 06時(UTC)から 22日の 12時(UTC)まで有効
北/北東の風 8kt
視程: 8000m
21日の 06時(UTC)から 21日の 10時(UTC)まで一時的に
視程: 4000m
広範な塵
21日の 17時(UTC)から 21日の 20時(UTC)まで一時的に
視程: 4000m
広範な塵

TAF: DFFD 210500Z 2106/2212 02008KT 8000 NSC TEMPO 2106/2110 4000 DU TEMPO 2117/2120 4000 DU

4,000以上の空港の気象観測と天気予報(METAR報とTAF報)

利用可能な観測所は地図上に黄色い丸と赤い丸で示す。

丸の上にカーソルを重ねると観測所名を参照できる。

次にクリックすると気象観測と天気予報を参照できる。

マップの切り替え:黒色「×」印の緑ボタンをクリックして拡大、「-」印の緑ボタンをクリックして縮小、緑色の三角印をクリックして隣りの地図に切り替え


METAR-TAF: